sensor_id;sensor_type;location;lat;lon;timestamp;temperature;humidity
2751;DHT22;1383;48.362;10.908;2022-07-22T00:01:49;21.70;62.80
2751;DHT22;1383;48.362;10.908;2022-07-22T00:04:16;21.70;62.90
2751;DHT22;1383;48.362;10.908;2022-07-22T00:06:43;21.70;63.00
2751;DHT22;1383;48.362;10.908;2022-07-22T00:09:10;21.60;63.00
2751;DHT22;1383;48.362;10.908;2022-07-22T00:11:37;21.50;63.70
2751;DHT22;1383;48.362;10.908;2022-07-22T00:14:04;21.50;64.40
2751;DHT22;1383;48.362;10.908;2022-07-22T00:16:31;21.50;64.20
2751;DHT22;1383;48.362;10.908;2022-07-22T00:18:58;21.50;63.80
2751;DHT22;1383;48.362;10.908;2022-07-22T00:21:26;21.40;63.50
2751;DHT22;1383;48.362;10.908;2022-07-22T00:23:52;21.40;63.40
2751;DHT22;1383;48.362;10.908;2022-07-22T00:26:19;21.40;63.20
2751;DHT22;1383;48.362;10.908;2022-07-22T00:28:46;21.30;63.70
2751;DHT22;1383;48.362;10.908;2022-07-22T00:31:13;21.30;63.60
2751;DHT22;1383;48.362;10.908;2022-07-22T00:33:39;21.30;63.10
2751;DHT22;1383;48.362;10.908;2022-07-22T00:36:07;21.30;63.10
2751;DHT22;1383;48.362;10.908;2022-07-22T00:38:33;21.10;64.10
2751;DHT22;1383;48.362;10.908;2022-07-22T00:41:01;21.10;63.90
2751;DHT22;1383;48.362;10.908;2022-07-22T00:43:28;21.00;64.10
2751;DHT22;1383;48.362;10.908;2022-07-22T00:45:54;21.00;64.30
2751;DHT22;1383;48.362;10.908;2022-07-22T00:48:21;20.90;65.10
2751;DHT22;1383;48.362;10.908;2022-07-22T00:50:48;20.80;65.60
2751;DHT22;1383;48.362;10.908;2022-07-22T00:53:15;20.90;65.70
2751;DHT22;1383;48.362;10.908;2022-07-22T00:55:42;20.90;65.20
2751;DHT22;1383;48.362;10.908;2022-07-22T00:58:09;20.80;65.40
2751;DHT22;1383;48.362;10.908;2022-07-22T01:00:36;20.70;66.30
2751;DHT22;1383;48.362;10.908;2022-07-22T01:03:03;20.60;67.10
2751;DHT22;1383;48.362;10.908;2022-07-22T01:05:30;20.70;66.70
2751;DHT22;1383;48.362;10.908;2022-07-22T01:07:57;20.70;66.60
2751;DHT22;1383;48.362;10.908;2022-07-22T01:10:24;20.70;67.20
2751;DHT22;1383;48.362;10.908;2022-07-22T01:12:51;20.70;66.50
2751;DHT22;1383;48.362;10.908;2022-07-22T01:15:18;20.70;66.30
2751;DHT22;1383;48.362;10.908;2022-07-22T01:17:45;20.60;66.40
2751;DHT22;1383;48.362;10.908;2022-07-22T01:20:12;20.60;67.20
2751;DHT22;1383;48.362;10.908;2022-07-22T01:22:39;20.60;67.00
2751;DHT22;1383;48.362;10.908;2022-07-22T01:25:06;20.60;67.40
2751;DHT22;1383;48.362;10.908;2022-07-22T01:27:33;20.50;67.70
2751;DHT22;1383;48.362;10.908;2022-07-22T01:30:00;20.50;67.60
2751;DHT22;1383;48.362;10.908;2022-07-22T01:32:27;20.50;67.90
2751;DHT22;1383;48.362;10.908;2022-07-22T01:34:54;20.60;67.90
2751;DHT22;1383;48.362;10.908;2022-07-22T01:37:21;20.50;67.60
2751;DHT22;1383;48.362;10.908;2022-07-22T01:39:48;20.50;68.10
2751;DHT22;1383;48.362;10.908;2022-07-22T01:42:16;20.60;67.90
2751;DHT22;1383;48.362;10.908;2022-07-22T01:44:43;20.60;67.80
2751;DHT22;1383;48.362;10.908;2022-07-22T01:47:10;20.60;68.00
2751;DHT22;1383;48.362;10.908;2022-07-22T01:49:37;20.60;67.10
2751;DHT22;1383;48.362;10.908;2022-07-22T01:52:04;20.60;67.00
2751;DHT22;1383;48.362;10.908;2022-07-22T01:54:32;20.60;67.00
2751;DHT22;1383;48.362;10.908;2022-07-22T01:56:59;20.60;67.20
2751;DHT22;1383;48.362;10.908;2022-07-22T01:59:26;20.60;67.20
2751;DHT22;1383;48.362;10.908;2022-07-22T02:01:53;20.40;67.50
2751;DHT22;1383;48.362;10.908;2022-07-22T02:04:20;20.30;68.00
2751;DHT22;1383;48.362;10.908;2022-07-22T02:06:52;20.30;69.10
2751;DHT22;1383;48.362;10.908;2022-07-22T02:09:19;20.20;68.80
2751;DHT22;1383;48.362;10.908;2022-07-22T02:11:46;20.20;69.40
2751;DHT22;1383;48.362;10.908;2022-07-22T02:14:13;20.20;69.00
2751;DHT22;1383;48.362;10.908;2022-07-22T02:16:40;20.10;69.40
2751;DHT22;1383;48.362;10.908;2022-07-22T02:19:07;20.10;69.70
2751;DHT22;1383;48.362;10.908;2022-07-22T02:21:34;20.10;69.50
2751;DHT22;1383;48.362;10.908;2022-07-22T02:24:01;20.10;69.70
2751;DHT22;1383;48.362;10.908;2022-07-22T02:26:28;20.00;69.80
2751;DHT22;1383;48.362;10.908;2022-07-22T02:28:55;20.00;70.10
2751;DHT22;1383;48.362;10.908;2022-07-22T02:31:22;19.80;71.10
2751;DHT22;1383;48.362;10.908;2022-07-22T02:33:50;19.70;71.50
2751;DHT22;1383;48.362;10.908;2022-07-22T02:36:17;19.70;72.00
2751;DHT22;1383;48.362;10.908;2022-07-22T02:38:45;19.60;71.90
2751;DHT22;1383;48.362;10.908;2022-07-22T02:41:12;19.50;72.50
2751;DHT22;1383;48.362;10.908;2022-07-22T02:43:38;19.50;71.80
2751;DHT22;1383;48.362;10.908;2022-07-22T02:46:05;19.50;72.10
2751;DHT22;1383;48.362;10.908;2022-07-22T02:48:32;19.50;71.90
2751;DHT22;1383;48.362;10.908;2022-07-22T02:51:00;19.40;71.80
2751;DHT22;1383;48.362;10.908;2022-07-22T02:53:26;19.40;71.90
2751;DHT22;1383;48.362;10.908;2022-07-22T02:55:53;19.40;71.80
2751;DHT22;1383;48.362;10.908;2022-07-22T02:58:20;19.30;72.60
2751;DHT22;1383;48.362;10.908;2022-07-22T03:00:47;19.30;72.80
2751;DHT22;1383;48.362;10.908;2022-07-22T03:03:14;19.30;72.90
2751;DHT22;1383;48.362;10.908;2022-07-22T03:05:40;19.30;72.70
2751;DHT22;1383;48.362;10.908;2022-07-22T03:08:07;19.30;72.90
2751;DHT22;1383;48.362;10.908;2022-07-22T03:10:34;19.30;73.00
2751;DHT22;1383;48.362;10.908;2022-07-22T03:13:01;19.40;73.40
2751;DHT22;1383;48.362;10.908;2022-07-22T03:15:27;19.50;73.20
2751;DHT22;1383;48.362;10.908;2022-07-22T03:17:54;19.50;72.80
2751;DHT22;1383;48.362;10.908;2022-07-22T03:20:21;19.50;72.40
2751;DHT22;1383;48.362;10.908;2022-07-22T03:22:48;19.40;72.40
2751;DHT22;1383;48.362;10.908;2022-07-22T03:25:15;19.30;72.70
2751;DHT22;1383;48.362;10.908;2022-07-22T03:27:41;19.30;72.30
2751;DHT22;1383;48.362;10.908;2022-07-22T03:30:08;19.20;72.20
2751;DHT22;1383;48.362;10.908;2022-07-22T03:32:35;19.20;72.50
2751;DHT22;1383;48.362;10.908;2022-07-22T03:35:03;19.20;73.30
2751;DHT22;1383;48.362;10.908;2022-07-22T03:37:30;19.10;73.30
2751;DHT22;1383;48.362;10.908;2022-07-22T03:39:57;19.10;73.80
2751;DHT22;1383;48.362;10.908;2022-07-22T03:42:24;19.00;74.00
2751;DHT22;1383;48.362;10.908;2022-07-22T03:44:51;19.10;74.30
2751;DHT22;1383;48.362;10.908;2022-07-22T03:47:19;19.00;74.70
2751;DHT22;1383;48.362;10.908;2022-07-22T03:49:47;19.00;73.70
2751;DHT22;1383;48.362;10.908;2022-07-22T03:52:14;19.00;73.70
2751;DHT22;1383;48.362;10.908;2022-07-22T03:54:42;19.00;73.70
2751;DHT22;1383;48.362;10.908;2022-07-22T03:57:09;19.00;74.00
2751;DHT22;1383;48.362;10.908;2022-07-22T03:59:36;19.00;73.70
2751;DHT22;1383;48.362;10.908;2022-07-22T04:02:03;19.00;74.10
2751;DHT22;1383;48.362;10.908;2022-07-22T04:04:30;19.00;73.80
2751;DHT22;1383;48.362;10.908;2022-07-22T04:06:57;19.00;73.60
2751;DHT22;1383;48.362;10.908;2022-07-22T04:09:24;19.00;73.00
2751;DHT22;1383;48.362;10.908;2022-07-22T04:11:51;19.00;73.10
2751;DHT22;1383;48.362;10.908;2022-07-22T04:14:18;19.00;73.50
2751;DHT22;1383;48.362;10.908;2022-07-22T04:16:45;19.00;73.50
2751;DHT22;1383;48.362;10.908;2022-07-22T04:19:12;19.00;72.80
2751;DHT22;1383;48.362;10.908;2022-07-22T04:21:39;19.00;72.50
2751;DHT22;1383;48.362;10.908;2022-07-22T04:24:07;19.00;72.60
2751;DHT22;1383;48.362;10.908;2022-07-22T04:26:34;19.00;72.70
2751;DHT22;1383;48.362;10.908;2022-07-22T04:29:04;19.00;72.60
2751;DHT22;1383;48.362;10.908;2022-07-22T04:31:31;19.00;72.70
2751;DHT22;1383;48.362;10.908;2022-07-22T04:33:59;19.10;72.30
2751;DHT22;1383;48.362;10.908;2022-07-22T04:36:25;19.10;72.20
2751;DHT22;1383;48.362;10.908;2022-07-22T04:38:52;19.20;71.80
2751;DHT22;1383;48.362;10.908;2022-07-22T04:41:20;19.20;71.30
2751;DHT22;1383;48.362;10.908;2022-07-22T04:43:47;19.20;71.10
2751;DHT22;1383;48.362;10.908;2022-07-22T04:46:14;19.30;71.40
2751;DHT22;1383;48.362;10.908;2022-07-22T04:48:40;19.30;70.90
2751;DHT22;1383;48.362;10.908;2022-07-22T04:51:07;19.30;70.70
2751;DHT22;1383;48.362;10.908;2022-07-22T04:53:34;19.40;70.10
2751;DHT22;1383;48.362;10.908;2022-07-22T04:56:13;19.50;70.00
2751;DHT22;1383;48.362;10.908;2022-07-22T04:58:40;19.50;69.30
2751;DHT22;1383;48.362;10.908;2022-07-22T05:01:07;19.60;68.70
2751;DHT22;1383;48.362;10.908;2022-07-22T05:03:38;19.60;68.60
2751;DHT22;1383;48.362;10.908;2022-07-22T05:06:06;19.70;68.00
2751;DHT22;1383;48.362;10.908;2022-07-22T05:08:33;19.80;67.60
2751;DHT22;1383;48.362;10.908;2022-07-22T05:11:00;19.90;67.70
2751;DHT22;1383;48.362;10.908;2022-07-22T05:13:27;19.90;67.20
2751;DHT22;1383;48.362;10.908;2022-07-22T05:15:54;20.00;66.80
2751;DHT22;1383;48.362;10.908;2022-07-22T05:18:21;20.10;66.00
2751;DHT22;1383;48.362;10.908;2022-07-22T05:20:47;20.10;66.00
2751;DHT22;1383;48.362;10.908;2022-07-22T05:23:15;20.20;65.40
2751;DHT22;1383;48.362;10.908;2022-07-22T05:25:42;20.40;64.80
2751;DHT22;1383;48.362;10.908;2022-07-22T05:28:08;20.60;63.70
2751;DHT22;1383;48.362;10.908;2022-07-22T05:30:35;20.90;62.40
2751;DHT22;1383;48.362;10.908;2022-07-22T05:33:02;21.10;61.90
2751;DHT22;1383;48.362;10.908;2022-07-22T05:35:29;21.30;60.00
2751;DHT22;1383;48.362;10.908;2022-07-22T05:37:56;21.60;59.30
2751;DHT22;1383;48.362;10.908;2022-07-22T05:40:23;21.90;58.20
2751;DHT22;1383;48.362;10.908;2022-07-22T05:42:49;22.30;56.00
2751;DHT22;1383;48.362;10.908;2022-07-22T05:45:16;22.60;54.70
2751;DHT22;1383;48.362;10.908;2022-07-22T05:47:43;22.90;53.10
2751;DHT22;1383;48.362;10.908;2022-07-22T05:50:10;23.10;52.50
2751;DHT22;1383;48.362;10.908;2022-07-22T05:52:38;23.40;51.30
2751;DHT22;1383;48.362;10.908;2022-07-22T05:55:09;23.70;49.90
2751;DHT22;1383;48.362;10.908;2022-07-22T05:57:36;24.00;48.90
2751;DHT22;1383;48.362;10.908;2022-07-22T06:00:04;24.20;48.00
2751;DHT22;1383;48.362;10.908;2022-07-22T06:02:32;24.60;47.60
2751;DHT22;1383;48.362;10.908;2022-07-22T06:04:59;24.90;46.20
2751;DHT22;1383;48.362;10.908;2022-07-22T06:07:29;25.30;44.10
2751;DHT22;1383;48.362;10.908;2022-07-22T06:09:56;25.60;43.70
2751;DHT22;1383;48.362;10.908;2022-07-22T06:12:23;25.80;42.40
2751;DHT22;1383;48.362;10.908;2022-07-22T06:14:49;26.20;42.90
2751;DHT22;1383;48.362;10.908;2022-07-22T06:17:16;26.60;41.20
2751;DHT22;1383;48.362;10.908;2022-07-22T06:19:43;26.90;39.70
2751;DHT22;1383;48.362;10.908;2022-07-22T06:22:10;27.30;38.40
2751;DHT22;1383;48.362;10.908;2022-07-22T06:24:37;27.50;37.70
2751;DHT22;1383;48.362;10.908;2022-07-22T06:27:04;27.80;36.80
2751;DHT22;1383;48.362;10.908;2022-07-22T06:29:30;27.70;37.30
2751;DHT22;1383;48.362;10.908;2022-07-22T06:31:57;27.60;35.60
2751;DHT22;1383;48.362;10.908;2022-07-22T06:34:24;27.20;36.90
2751;DHT22;1383;48.362;10.908;2022-07-22T06:36:51;27.50;37.20
2751;DHT22;1383;48.362;10.908;2022-07-22T06:39:18;28.00;35.80
2751;DHT22;1383;48.362;10.908;2022-07-22T06:41:45;27.60;35.30
2751;DHT22;1383;48.362;10.908;2022-07-22T06:44:12;26.90;36.50
2751;DHT22;1383;48.362;10.908;2022-07-22T06:46:39;27.20;36.90
2751;DHT22;1383;48.362;10.908;2022-07-22T06:49:07;27.50;36.20
2751;DHT22;1383;48.362;10.908;2022-07-22T06:51:38;27.90;35.00
2751;DHT22;1383;48.362;10.908;2022-07-22T06:54:05;27.60;34.80
2751;DHT22;1383;48.362;10.908;2022-07-22T06:56:32;27.30;35.70
2751;DHT22;1383;48.362;10.908;2022-07-22T06:58:59;28.00;35.30
2751;DHT22;1383;48.362;10.908;2022-07-22T07:01:26;28.40;32.80
2751;DHT22;1383;48.362;10.908;2022-07-22T07:03:53;28.70;32.60
2751;DHT22;1383;48.362;10.908;2022-07-22T07:06:20;28.60;31.80
2751;DHT22;1383;48.362;10.908;2022-07-22T07:08:47;28.50;33.10
2751;DHT22;1383;48.362;10.908;2022-07-22T07:11:14;29.10;31.90
2751;DHT22;1383;48.362;10.908;2022-07-22T07:13:40;29.50;29.30
2751;DHT22;1383;48.362;10.908;2022-07-22T07:16:07;29.50;28.60
2751;DHT22;1383;48.362;10.908;2022-07-22T07:18:34;29.80;28.30
2751;DHT22;1383;48.362;10.908;2022-07-22T07:21:03;30.30;27.10
2751;DHT22;1383;48.362;10.908;2022-07-22T07:23:33;30.40;25.80
2751;DHT22;1383;48.362;10.908;2022-07-22T07:26:00;30.40;25.40
2751;DHT22;1383;48.362;10.908;2022-07-22T07:28:27;30.20;25.90
2751;DHT22;1383;48.362;10.908;2022-07-22T07:30:55;30.60;26.00
2751;DHT22;1383;48.362;10.908;2022-07-22T07:33:22;31.10;25.30
2751;DHT22;1383;48.362;10.908;2022-07-22T07:35:49;31.30;24.80
2751;DHT22;1383;48.362;10.908;2022-07-22T07:38:16;30.90;24.80
2751;DHT22;1383;48.362;10.908;2022-07-22T07:40:43;30.20;24.40
2751;DHT22;1383;48.362;10.908;2022-07-22T07:43:10;30.30;25.70
2751;DHT22;1383;48.362;10.908;2022-07-22T07:45:37;30.80;25.50
2751;DHT22;1383;48.362;10.908;2022-07-22T07:48:04;31.00;25.20
2751;DHT22;1383;48.362;10.908;2022-07-22T07:50:31;30.90;25.20
2751;DHT22;1383;48.362;10.908;2022-07-22T07:52:58;31.00;25.60
2751;DHT22;1383;48.362;10.908;2022-07-22T07:55:25;31.40;24.60
2751;DHT22;1383;48.362;10.908;2022-07-22T07:57:52;31.80;24.70
2751;DHT22;1383;48.362;10.908;2022-07-22T08:00:22;32.40;24.20
2751;DHT22;1383;48.362;10.908;2022-07-22T08:02:50;32.70;23.60
2751;DHT22;1383;48.362;10.908;2022-07-22T08:05:17;33.00;23.30
2751;DHT22;1383;48.362;10.908;2022-07-22T08:07:47;33.00;22.00
2751;DHT22;1383;48.362;10.908;2022-07-22T08:10:14;32.20;23.10
2751;DHT22;1383;48.362;10.908;2022-07-22T08:13:01;31.80;24.20
2751;DHT22;1383;48.362;10.908;2022-07-22T08:15:30;32.00;24.40
2751;DHT22;1383;48.362;10.908;2022-07-22T08:17:58;32.30;23.00
2751;DHT22;1383;48.362;10.908;2022-07-22T08:20:26;32.20;23.00
2751;DHT22;1383;48.362;10.908;2022-07-22T08:22:54;32.30;22.90
2751;DHT22;1383;48.362;10.908;2022-07-22T08:25:21;32.50;23.20
2751;DHT22;1383;48.362;10.908;2022-07-22T08:27:48;32.60;22.70
2751;DHT22;1383;48.362;10.908;2022-07-22T08:30:17;32.70;22.70
2751;DHT22;1383;48.362;10.908;2022-07-22T08:32:44;32.70;22.90
2751;DHT22;1383;48.362;10.908;2022-07-22T08:35:11;32.80;22.50
2751;DHT22;1383;48.362;10.908;2022-07-22T08:37:38;32.30;22.90
2751;DHT22;1383;48.362;10.908;2022-07-22T08:40:06;32.40;22.90
2751;DHT22;1383;48.362;10.908;2022-07-22T08:42:38;31.90;23.30
2751;DHT22;1383;48.362;10.908;2022-07-22T08:45:06;31.80;24.40
2751;DHT22;1383;48.362;10.908;2022-07-22T08:47:46;32.10;23.90
2751;DHT22;1383;48.362;10.908;2022-07-22T08:50:14;32.90;22.90
2751;DHT22;1383;48.362;10.908;2022-07-22T08:52:41;33.40;22.60
2751;DHT22;1383;48.362;10.908;2022-07-22T08:55:09;33.50;21.40
2751;DHT22;1383;48.362;10.908;2022-07-22T08:57:36;33.30;22.10
2751;DHT22;1383;48.362;10.908;2022-07-22T09:00:12;33.40;22.00
2751;DHT22;1383;48.362;10.908;2022-07-22T09:02:41;33.00;22.30
2751;DHT22;1383;48.362;10.908;2022-07-22T09:05:11;32.80;23.20
2751;DHT22;1383;48.362;10.908;2022-07-22T09:08:00;33.10;22.70
2751;DHT22;1383;48.362;10.908;2022-07-22T09:10:35;32.80;22.30
2751;DHT22;1383;48.362;10.908;2022-07-22T09:13:05;32.60;22.70
2751;DHT22;1383;48.362;10.908;2022-07-22T09:15:38;33.00;23.00
2751;DHT22;1383;48.362;10.908;2022-07-22T09:18:08;33.90;22.10
2751;DHT22;1383;48.362;10.908;2022-07-22T09:20:36;33.30;21.30
2751;DHT22;1383;48.362;10.908;2022-07-22T09:23:15;33.50;21.00
2751;DHT22;1383;48.362;10.908;2022-07-22T09:25:44;33.50;20.70
2751;DHT22;1383;48.362;10.908;2022-07-22T09:28:14;33.50;20.50
2751;DHT22;1383;48.362;10.908;2022-07-22T09:30:48;33.30;21.30
2751;DHT22;1383;48.362;10.908;2022-07-22T09:33:17;33.70;20.50
2751;DHT22;1383;48.362;10.908;2022-07-22T09:35:46;34.10;21.70
2751;DHT22;1383;48.362;10.908;2022-07-22T09:38:18;34.50;19.40
2751;DHT22;1383;48.362;10.908;2022-07-22T09:40:47;34.00;19.20
2751;DHT22;1383;48.362;10.908;2022-07-22T09:43:17;33.40;20.10
2751;DHT22;1383;48.362;10.908;2022-07-22T09:45:53;33.30;20.20
2751;DHT22;1383;48.362;10.908;2022-07-22T09:48:21;34.10;19.70
2751;DHT22;1383;48.362;10.908;2022-07-22T09:50:49;34.50;18.40
2751;DHT22;1383;48.362;10.908;2022-07-22T09:53:18;35.10;18.00
2751;DHT22;1383;48.362;10.908;2022-07-22T09:55:46;35.90;17.80
2751;DHT22;1383;48.362;10.908;2022-07-22T09:58:13;35.40;17.00
2751;DHT22;1383;48.362;10.908;2022-07-22T10:00:41;35.20;17.10
2751;DHT22;1383;48.362;10.908;2022-07-22T10:03:12;35.50;16.80
2751;DHT22;1383;48.362;10.908;2022-07-22T10:05:41;35.40;15.60
2751;DHT22;1383;48.362;10.908;2022-07-22T10:08:09;35.10;15.90
2751;DHT22;1383;48.362;10.908;2022-07-22T10:10:37;35.40;17.00
2751;DHT22;1383;48.362;10.908;2022-07-22T10:13:06;35.20;16.50
2751;DHT22;1383;48.362;10.908;2022-07-22T10:15:35;35.10;17.30
2751;DHT22;1383;48.362;10.908;2022-07-22T10:18:06;34.90;17.10
2751;DHT22;1383;48.362;10.908;2022-07-22T10:20:34;34.70;17.80
2751;DHT22;1383;48.362;10.908;2022-07-22T10:23:03;34.90;17.30
2751;DHT22;1383;48.362;10.908;2022-07-22T10:25:56;35.20;17.60
2751;DHT22;1383;48.362;10.908;2022-07-22T10:28:36;35.70;16.50
2751;DHT22;1383;48.362;10.908;2022-07-22T10:31:19;35.20;15.80
2751;DHT22;1383;48.362;10.908;2022-07-22T10:33:54;35.20;16.20
2751;DHT22;1383;48.362;10.908;2022-07-22T10:36:36;35.10;16.30
2751;DHT22;1383;48.362;10.908;2022-07-22T10:39:13;35.40;15.70
2751;DHT22;1383;48.362;10.908;2022-07-22T10:41:45;35.70;15.50
2751;DHT22;1383;48.362;10.908;2022-07-22T10:44:47;35.70;15.60
2751;DHT22;1383;48.362;10.908;2022-07-22T10:47:55;35.60;15.20
2751;DHT22;1383;48.362;10.908;2022-07-22T10:53:05;35.80;14.70
2751;DHT22;1383;48.362;10.908;2022-07-22T10:55:33;35.10;14.40
2751;DHT22;1383;48.362;10.908;2022-07-22T11:00:46;32.30;18.00
2751;DHT22;1383;48.362;10.908;2022-07-22T11:03:23;32.50;18.50
2751;DHT22;1383;48.362;10.908;2022-07-22T11:05:51;32.70;18.60
2751;DHT22;1383;48.362;10.908;2022-07-22T11:08:19;32.60;18.70
2751;DHT22;1383;48.362;10.908;2022-07-22T11:10:50;32.50;18.80
2751;DHT22;1383;48.362;10.908;2022-07-22T11:13:32;32.30;19.00
2751;DHT22;1383;48.362;10.908;2022-07-22T11:16:21;32.10;18.30
2751;DHT22;1383;48.362;10.908;2022-07-22T11:18:54;32.00;18.70
2751;DHT22;1383;48.362;10.908;2022-07-22T11:21:31;31.80;18.30
2751;DHT22;1383;48.362;10.908;2022-07-22T11:24:04;31.10;18.90
2751;DHT22;1383;48.362;10.908;2022-07-22T11:26:41;30.80;18.90
2751;DHT22;1383;48.362;10.908;2022-07-22T11:29:09;30.80;19.10
2751;DHT22;1383;48.362;10.908;2022-07-22T11:31:37;30.60;19.50
2751;DHT22;1383;48.362;10.908;2022-07-22T11:34:09;30.50;19.70
2751;DHT22;1383;48.362;10.908;2022-07-22T11:36:38;30.50;19.30
2751;DHT22;1383;48.362;10.908;2022-07-22T11:39:06;30.40;19.50
2751;DHT22;1383;48.362;10.908;2022-07-22T11:41:34;30.50;19.80
2751;DHT22;1383;48.362;10.908;2022-07-22T11:44:01;30.60;19.20
2751;DHT22;1383;48.362;10.908;2022-07-22T11:46:33;30.60;18.70
2751;DHT22;1383;48.362;10.908;2022-07-22T11:49:00;30.70;18.90
2751;DHT22;1383;48.362;10.908;2022-07-22T11:51:31;30.80;17.70
2751;DHT22;1383;48.362;10.908;2022-07-22T11:53:59;30.70;18.20
2751;DHT22;1383;48.362;10.908;2022-07-22T11:56:27;30.60;18.70
2751;DHT22;1383;48.362;10.908;2022-07-22T11:58:55;30.60;18.80
2751;DHT22;1383;48.362;10.908;2022-07-22T12:01:25;30.70;18.90
2751;DHT22;1383;48.362;10.908;2022-07-22T12:04:01;30.80;18.80
2751;DHT22;1383;48.362;10.908;2022-07-22T12:06:29;31.00;18.50
2751;DHT22;1383;48.362;10.908;2022-07-22T12:09:07;31.10;17.80
2751;DHT22;1383;48.362;10.908;2022-07-22T12:11:37;31.10;17.40
2751;DHT22;1383;48.362;10.908;2022-07-22T12:14:13;31.10;16.70
2751;DHT22;1383;48.362;10.908;2022-07-22T12:16:44;31.10;16.40
2751;DHT22;1383;48.362;10.908;2022-07-22T12:19:13;31.20;17.10
2751;DHT22;1383;48.362;10.908;2022-07-22T12:21:55;31.20;17.40
2751;DHT22;1383;48.362;10.908;2022-07-22T12:26:56;31.10;17.70
2751;DHT22;1383;48.362;10.908;2022-07-22T12:34:38;30.80;16.80
2751;DHT22;1383;48.362;10.908;2022-07-22T12:37:16;30.70;16.90
2751;DHT22;1383;48.362;10.908;2022-07-22T12:40:07;30.70;16.50
2751;DHT22;1383;48.362;10.908;2022-07-22T12:42:42;30.70;16.90
2751;DHT22;1383;48.362;10.908;2022-07-22T12:45:11;30.80;16.70
2751;DHT22;1383;48.362;10.908;2022-07-22T12:47:45;31.00;17.20
2751;DHT22;1383;48.362;10.908;2022-07-22T12:50:23;31.10;17.20
2751;DHT22;1383;48.362;10.908;2022-07-22T12:58:14;31.40;15.90
2751;DHT22;1383;48.362;10.908;2022-07-22T13:00:48;31.40;16.10
2751;DHT22;1383;48.362;10.908;2022-07-22T13:03:16;31.40;16.70
2751;DHT22;1383;48.362;10.908;2022-07-22T13:05:57;31.40;17.20
2751;DHT22;1383;48.362;10.908;2022-07-22T13:08:24;31.40;16.70
2751;DHT22;1383;48.362;10.908;2022-07-22T13:10:54;31.40;17.10
2751;DHT22;1383;48.362;10.908;2022-07-22T13:13:22;31.40;16.60
2751;DHT22;1383;48.362;10.908;2022-07-22T13:15:50;31.50;16.70
2751;DHT22;1383;48.362;10.908;2022-07-22T13:18:17;31.50;16.40
2751;DHT22;1383;48.362;10.908;2022-07-22T13:20:44;31.50;16.00
2751;DHT22;1383;48.362;10.908;2022-07-22T13:23:11;31.50;16.30
2751;DHT22;1383;48.362;10.908;2022-07-22T13:25:38;31.40;16.50
2751;DHT22;1383;48.362;10.908;2022-07-22T13:28:05;31.40;14.60
2751;DHT22;1383;48.362;10.908;2022-07-22T13:30:32;31.40;14.70
2751;DHT22;1383;48.362;10.908;2022-07-22T13:32:59;31.40;14.50
2751;DHT22;1383;48.362;10.908;2022-07-22T13:35:25;31.40;16.70
2751;DHT22;1383;48.362;10.908;2022-07-22T13:37:52;31.50;16.90
2751;DHT22;1383;48.362;10.908;2022-07-22T13:40:19;31.50;16.30
2751;DHT22;1383;48.362;10.908;2022-07-22T13:42:46;31.30;15.60
2751;DHT22;1383;48.362;10.908;2022-07-22T13:45:13;31.30;16.00
2751;DHT22;1383;48.362;10.908;2022-07-22T13:47:41;31.40;15.80
2751;DHT22;1383;48.362;10.908;2022-07-22T13:50:08;31.40;15.60
2751;DHT22;1383;48.362;10.908;2022-07-22T13:52:35;31.50;15.50
2751;DHT22;1383;48.362;10.908;2022-07-22T13:55:03;31.50;16.10
2751;DHT22;1383;48.362;10.908;2022-07-22T13:57:30;31.40;15.60
2751;DHT22;1383;48.362;10.908;2022-07-22T13:59:56;31.50;16.60
2751;DHT22;1383;48.362;10.908;2022-07-22T14:02:23;31.50;16.70
2751;DHT22;1383;48.362;10.908;2022-07-22T14:04:51;31.50;14.60
2751;DHT22;1383;48.362;10.908;2022-07-22T14:07:17;31.50;14.40
2751;DHT22;1383;48.362;10.908;2022-07-22T14:09:44;31.70;15.50
2751;DHT22;1383;48.362;10.908;2022-07-22T14:12:11;31.70;15.90
2751;DHT22;1383;48.362;10.908;2022-07-22T14:14:38;31.80;15.80
2751;DHT22;1383;48.362;10.908;2022-07-22T14:17:05;31.80;15.90
2751;DHT22;1383;48.362;10.908;2022-07-22T14:19:33;31.80;15.80
2751;DHT22;1383;48.362;10.908;2022-07-22T14:22:00;31.70;15.80
2751;DHT22;1383;48.362;10.908;2022-07-22T14:24:27;31.50;16.20
2751;DHT22;1383;48.362;10.908;2022-07-22T14:26:53;31.60;16.10
2751;DHT22;1383;48.362;10.908;2022-07-22T14:29:20;31.60;16.00
2751;DHT22;1383;48.362;10.908;2022-07-22T14:31:49;31.70;15.90
2751;DHT22;1383;48.362;10.908;2022-07-22T14:34:16;31.70;15.70
2751;DHT22;1383;48.362;10.908;2022-07-22T14:36:46;31.70;15.90
2751;DHT22;1383;48.362;10.908;2022-07-22T14:39:12;31.70;15.70
2751;DHT22;1383;48.362;10.908;2022-07-22T14:41:39;31.60;15.90
2751;DHT22;1383;48.362;10.908;2022-07-22T14:44:06;31.70;15.90
2751;DHT22;1383;48.362;10.908;2022-07-22T14:46:33;31.70;15.50
2751;DHT22;1383;48.362;10.908;2022-07-22T14:49:00;31.70;15.70
2751;DHT22;1383;48.362;10.908;2022-07-22T14:51:27;31.80;16.10
2751;DHT22;1383;48.362;10.908;2022-07-22T14:53:54;31.90;16.30
2751;DHT22;1383;48.362;10.908;2022-07-22T14:56:21;31.80;16.10
2751;DHT22;1383;48.362;10.908;2022-07-22T14:58:48;31.70;16.30
2751;DHT22;1383;48.362;10.908;2022-07-22T15:01:15;31.70;16.00
2751;DHT22;1383;48.362;10.908;2022-07-22T15:03:42;31.80;16.00
2751;DHT22;1383;48.362;10.908;2022-07-22T15:06:09;31.90;15.60
2751;DHT22;1383;48.362;10.908;2022-07-22T15:08:36;31.90;15.80
2751;DHT22;1383;48.362;10.908;2022-07-22T15:11:03;31.90;15.30
2751;DHT22;1383;48.362;10.908;2022-07-22T15:13:31;31.90;15.80
2751;DHT22;1383;48.362;10.908;2022-07-22T15:15:58;31.90;15.60
2751;DHT22;1383;48.362;10.908;2022-07-22T15:18:26;31.90;15.70
2751;DHT22;1383;48.362;10.908;2022-07-22T15:20:53;32.00;15.70
2751;DHT22;1383;48.362;10.908;2022-07-22T15:23:23;32.00;15.50
2751;DHT22;1383;48.362;10.908;2022-07-22T15:25:51;32.00;15.40
2751;DHT22;1383;48.362;10.908;2022-07-22T15:28:18;32.10;15.20
2751;DHT22;1383;48.362;10.908;2022-07-22T15:31:01;32.10;15.10
2751;DHT22;1383;48.362;10.908;2022-07-22T15:33:29;31.90;14.40
2751;DHT22;1383;48.362;10.908;2022-07-22T15:36:08;31.90;14.80
2751;DHT22;1383;48.362;10.908;2022-07-22T15:38:36;31.90;14.60
2751;DHT22;1383;48.362;10.908;2022-07-22T15:41:05;31.90;14.60
2751;DHT22;1383;48.362;10.908;2022-07-22T15:43:32;31.90;14.30
2751;DHT22;1383;48.362;10.908;2022-07-22T15:45:58;32.00;14.30
2751;DHT22;1383;48.362;10.908;2022-07-22T15:48:25;32.00;14.30
2751;DHT22;1383;48.362;10.908;2022-07-22T15:50:53;32.00;15.00
2751;DHT22;1383;48.362;10.908;2022-07-22T15:53:27;32.00;15.10
2751;DHT22;1383;48.362;10.908;2022-07-22T15:55:54;32.00;13.90
2751;DHT22;1383;48.362;10.908;2022-07-22T15:58:21;32.00;13.40
2751;DHT22;1383;48.362;10.908;2022-07-22T16:01:06;31.80;13.80
2751;DHT22;1383;48.362;10.908;2022-07-22T16:03:33;31.90;13.70
2751;DHT22;1383;48.362;10.908;2022-07-22T16:06:00;31.90;13.70
2751;DHT22;1383;48.362;10.908;2022-07-22T16:08:28;31.90;13.50
2751;DHT22;1383;48.362;10.908;2022-07-22T16:10:54;31.90;13.70
2751;DHT22;1383;48.362;10.908;2022-07-22T16:13:21;31.90;13.60